Atwood, Kentucky
Current Conditions -  °F | °C
As of 1:04 PM on Thursday 29 Jan 2015 (Local Time) from KCVG Reporting Station
Overcast Overcast  
Wind Chill: 41°   Ceiling: 2900
Heat Index: 48°   Visibility: 10mi
Dew Point: 37°   Wind: 23mph
Humidity: 66%   Direction: 260°W
Pressure: 29.83"   Gusts: 37mph
Location:  38.8354°N, 84.5143°W
Report Text: KCVG 291804Z 26020G32KT 10SM OVC029 09/03 A2983 RMK AO2 PK WND 26032/1804
Loading
Personal Weather Stations






























Interactive Weather Map New forecast layout! Learn more

10-Day Weather Forecast

Advertisements
Track Severe Weather on mobile